Search for airport 
image banner adimage banner adimage banner ad
image banner ad

NV99 - Maverick Heliport

Located in Las Vegas, United States

ICAO - NV99, IATA -

Data provided by Airmate  

General information

Coordinates: N39°2'12" W114°49'48"
Elevation is 6834 feet MSL.
Magnetic variation is 12° East
View others Airports in Nevada

Operational data

Special qualification required
Current time UTC:
Current local time:
Weather at : KELY - Ely Arpt /Yelland Fld/ ( 29 km )
METAR: KELY 092153Z AUTO 00000KT 10SM OVC100 13/M08 A3000 RMK AO2 SLP118 T01331083
TAF: KELY 091721Z 0918/1018 36005KT P6SM BKN160 BKN200 FM092100 31007KT P6SM BKN160 BKN200 FM100000 31010G18KT P6SM FEW070 BKN090 BKN150 FM100300 01009KT P6SM SCT100 BKN150
View NOTAMs / SUP AIP / TFR affecting this airport [VIEW]
Communications frequencies: [VIEW]

Runways:

RWY identifierQFULength (ft)Width (ft)SurfaceLDA (ft)
02230030OTHER
20230030OTHER

Airport contact information

Address: Las Vegas United States

Satellite view of NV99